Main page
METAR-TAF:

METAR-TAF

Airports :

Isle of Man Airport

Isle of Man,

latitude: 54-05N, longitude: 004-38W, elevation: 17 m

Current weather observation

The report was made 1 hour and 10 minutes ago, at 21:50 UTC
Wind 22 kt from the East
Temperature 7°C
Humidity 76%
Pressure 998 hPa
Visibility 10 km or more
Overcast at a height of 2000 ft

METAR: EGNS 212150Z 10022KT 9999 OVC020 07/03 Q0998

Time: 23:00 (23:00 UTC)

Forecast

The report was made 6 hours and 0 minutes ago, at 17:00 UTC
Forecast valid from 21 at 18 UTC to 21 at 22 UTC
Wind 22 kt from the East/Southeast
Visibility 10 km or more
Broken clouds at a height of 1800 ft

TAF: EGNS 211700Z 2118/2122 11022KT 9999 BKN018

Weather observations and forecasts of more than 4000 airports (METAR and TAF reports).

The available stations are represented by yellow and red dots on the map.

Hover mouse over dot to see the name of the station.

Then click to see weather observations and forecasts.

To change the map : click on the green buttons with a black cross to zoom in, on the green button with a dash to zoom out, or on the green arrows for adjacent maps.


METAR-TAF: